sensor_id;sensor_type;location;lat;lon;timestamp;P1;durP1;ratioP1;P2;durP2;ratioP2
321;SDS011;148;51.480;7.208;2022-12-16T14:07:53;77.50;;;32.63;;
321;SDS011;148;51.480;7.208;2022-12-16T14:10:38;90.33;;;37.90;;
321;SDS011;148;51.480;7.208;2022-12-16T14:25:31;99.00;;;42.63;;
321;SDS011;148;51.480;7.208;2022-12-16T14:31:18;78.00;;;37.83;;
321;SDS011;148;51.480;7.208;2022-12-16T14:34:21;83.67;;;37.10;;
321;SDS011;148;51.480;7.208;2022-12-16T14:40:21;76.93;;;37.20;;
321;SDS011;148;51.480;7.208;2022-12-16T14:43:11;85.17;;;36.33;;
321;SDS011;148;51.480;7.208;2022-12-16T14:46:00;83.30;;;38.50;;
321;SDS011;148;51.480;7.208;2022-12-16T14:48:45;95.63;;;39.43;;
321;SDS011;148;51.480;7.208;2022-12-16T14:51:34;99.77;;;38.67;;
321;SDS011;148;51.480;7.208;2022-12-16T14:54:24;81.10;;;38.77;;
321;SDS011;148;51.480;7.208;2022-12-16T14:57:15;83.03;;;38.33;;
321;SDS011;148;51.480;7.208;2022-12-16T15:00:16;116.80;;;52.53;;
321;SDS011;148;51.480;7.208;2022-12-16T15:06:02;145.10;;;56.77;;
321;SDS011;148;51.480;7.208;2022-12-16T15:08:54;91.67;;;40.60;;
321;SDS011;148;51.480;7.208;2022-12-16T15:11:40;85.03;;;38.40;;
321;SDS011;148;51.480;7.208;2022-12-16T15:14:31;112.10;;;53.20;;
321;SDS011;148;51.480;7.208;2022-12-16T15:17:22;109.63;;;46.80;;
321;SDS011;148;51.480;7.208;2022-12-16T15:20:30;94.20;;;41.50;;
321;SDS011;148;51.480;7.208;2022-12-16T15:23:18;95.50;;;41.50;;
321;SDS011;148;51.480;7.208;2022-12-16T15:26:21;97.17;;;41.50;;
321;SDS011;148;51.480;7.208;2022-12-16T15:32:33;77.80;;;37.47;;
321;SDS011;148;51.480;7.208;2022-12-16T15:38:15;101.07;;;42.47;;
321;SDS011;148;51.480;7.208;2022-12-16T15:44:16;91.00;;;37.47;;
321;SDS011;148;51.480;7.208;2022-12-16T15:47:03;87.37;;;38.27;;
321;SDS011;148;51.480;7.208;2022-12-16T15:49:48;90.93;;;40.03;;
321;SDS011;148;51.480;7.208;2022-12-16T15:55:21;95.53;;;39.43;;
321;SDS011;148;51.480;7.208;2022-12-16T15:58:27;89.37;;;39.27;;
321;SDS011;148;51.480;7.208;2022-12-16T16:01:17;109.90;;;42.13;;
321;SDS011;148;51.480;7.208;2022-12-16T16:04:03;134.33;;;46.90;;
321;SDS011;148;51.480;7.208;2022-12-16T16:07:16;136.43;;;49.83;;
321;SDS011;148;51.480;7.208;2022-12-16T16:10:25;170.40;;;57.20;;
321;SDS011;148;51.480;7.208;2022-12-16T16:13:09;159.27;;;57.57;;
321;SDS011;148;51.480;7.208;2022-12-16T16:15:53;181.23;;;56.83;;
321;SDS011;148;51.480;7.208;2022-12-16T16:18:39;180.20;;;59.20;;
321;SDS011;148;51.480;7.208;2022-12-16T16:21:23;197.27;;;59.13;;
321;SDS011;148;51.480;7.208;2022-12-16T16:24:08;204.10;;;62.27;;
321;SDS011;148;51.480;7.208;2022-12-16T16:26:55;184.90;;;59.23;;
321;SDS011;148;51.480;7.208;2022-12-16T16:29:59;213.00;;;70.17;;
321;SDS011;148;51.480;7.208;2022-12-16T16:32:44;204.43;;;66.20;;
321;SDS011;148;51.480;7.208;2022-12-16T16:35:31;192.33;;;63.10;;
321;SDS011;148;51.480;7.208;2022-12-16T16:38:16;214.47;;;61.93;;
321;SDS011;148;51.480;7.208;2022-12-16T16:41:00;212.63;;;67.90;;
321;SDS011;148;51.480;7.208;2022-12-16T16:43:45;219.53;;;64.83;;
321;SDS011;148;51.480;7.208;2022-12-16T16:46:30;198.83;;;66.47;;
321;SDS011;148;51.480;7.208;2022-12-16T16:49:23;222.07;;;67.70;;
321;SDS011;148;51.480;7.208;2022-12-16T16:52:20;221.50;;;67.20;;
321;SDS011;148;51.480;7.208;2022-12-16T16:55:07;204.17;;;69.10;;
321;SDS011;148;51.480;7.208;2022-12-16T16:58:27;210.40;;;66.70;;
321;SDS011;148;51.480;7.208;2022-12-16T17:01:15;214.40;;;70.57;;
321;SDS011;148;51.480;7.208;2022-12-16T17:04:00;242.13;;;70.47;;
321;SDS011;148;51.480;7.208;2022-12-16T17:06:45;236.63;;;76.63;;
321;SDS011;148;51.480;7.208;2022-12-16T17:09:29;241.70;;;75.97;;
321;SDS011;148;51.480;7.208;2022-12-16T17:12:24;247.00;;;78.63;;
321;SDS011;148;51.480;7.208;2022-12-16T17:15:13;243.63;;;74.03;;
321;SDS011;148;51.480;7.208;2022-12-16T17:18:03;256.53;;;73.17;;
321;SDS011;148;51.480;7.208;2022-12-16T17:20:49;231.43;;;75.00;;
321;SDS011;148;51.480;7.208;2022-12-16T17:23:34;245.83;;;75.17;;
321;SDS011;148;51.480;7.208;2022-12-16T17:26:18;233.03;;;72.50;;
321;SDS011;148;51.480;7.208;2022-12-16T17:29:03;248.17;;;74.63;;
321;SDS011;148;51.480;7.208;2022-12-16T17:31:48;266.67;;;76.77;;
321;SDS011;148;51.480;7.208;2022-12-16T17:34:32;251.33;;;77.83;;
321;SDS011;148;51.480;7.208;2022-12-16T17:37:16;240.50;;;77.90;;
321;SDS011;148;51.480;7.208;2022-12-16T17:40:00;239.40;;;75.77;;
321;SDS011;148;51.480;7.208;2022-12-16T17:42:44;258.63;;;76.73;;
321;SDS011;148;51.480;7.208;2022-12-16T17:45:30;254.17;;;78.30;;
321;SDS011;148;51.480;7.208;2022-12-16T17:48:14;294.67;;;84.10;;
321;SDS011;148;51.480;7.208;2022-12-16T17:51:00;295.57;;;82.10;;
321;SDS011;148;51.480;7.208;2022-12-16T17:53:45;286.43;;;85.10;;
321;SDS011;148;51.480;7.208;2022-12-16T17:56:29;278.77;;;84.77;;
321;SDS011;148;51.480;7.208;2022-12-16T17:59:13;293.50;;;85.33;;
321;SDS011;148;51.480;7.208;2022-12-16T18:01:57;291.07;;;84.83;;
321;SDS011;148;51.480;7.208;2022-12-16T18:04:41;269.43;;;82.30;;
321;SDS011;148;51.480;7.208;2022-12-16T18:07:25;252.57;;;77.60;;
321;SDS011;148;51.480;7.208;2022-12-16T18:10:09;273.83;;;78.47;;
321;SDS011;148;51.480;7.208;2022-12-16T18:12:53;269.23;;;79.43;;
321;SDS011;148;51.480;7.208;2022-12-16T18:15:38;231.27;;;73.63;;
321;SDS011;148;51.480;7.208;2022-12-16T18:18:22;222.43;;;69.20;;
321;SDS011;148;51.480;7.208;2022-12-16T18:21:07;202.70;;;65.77;;
321;SDS011;148;51.480;7.208;2022-12-16T18:23:55;200.53;;;63.43;;
321;SDS011;148;51.480;7.208;2022-12-16T18:26:39;179.80;;;57.80;;
321;SDS011;148;51.480;7.208;2022-12-16T18:29:23;194.50;;;58.60;;
321;SDS011;148;51.480;7.208;2022-12-16T18:32:07;195.03;;;58.67;;
321;SDS011;148;51.480;7.208;2022-12-16T18:34:51;208.93;;;58.13;;
321;SDS011;148;51.480;7.208;2022-12-16T18:37:36;204.93;;;58.13;;
321;SDS011;148;51.480;7.208;2022-12-16T18:40:20;189.20;;;57.97;;
321;SDS011;148;51.480;7.208;2022-12-16T18:43:04;218.80;;;59.63;;
321;SDS011;148;51.480;7.208;2022-12-16T18:45:51;209.27;;;59.97;;
321;SDS011;148;51.480;7.208;2022-12-16T18:48:37;195.13;;;54.73;;
321;SDS011;148;51.480;7.208;2022-12-16T18:51:21;188.07;;;57.90;;
321;SDS011;148;51.480;7.208;2022-12-16T18:54:05;192.03;;;57.50;;
321;SDS011;148;51.480;7.208;2022-12-16T18:56:49;185.83;;;55.17;;
321;SDS011;148;51.480;7.208;2022-12-16T18:59:33;187.33;;;60.10;;
321;SDS011;148;51.480;7.208;2022-12-16T19:02:17;199.97;;;61.47;;
321;SDS011;148;51.480;7.208;2022-12-16T19:05:01;163.07;;;56.10;;
321;SDS011;148;51.480;7.208;2022-12-16T19:07:45;182.17;;;52.87;;
321;SDS011;148;51.480;7.208;2022-12-16T19:10:29;148.17;;;51.97;;
321;SDS011;148;51.480;7.208;2022-12-16T19:13:13;136.70;;;52.90;;
321;SDS011;148;51.480;7.208;2022-12-16T19:15:58;152.50;;;50.77;;
321;SDS011;148;51.480;7.208;2022-12-16T19:18:44;159.57;;;52.63;;
321;SDS011;148;51.480;7.208;2022-12-16T19:21:28;148.97;;;49.83;;
321;SDS011;148;51.480;7.208;2022-12-16T19:24:13;160.13;;;52.37;;
321;SDS011;148;51.480;7.208;2022-12-16T19:26:59;154.90;;;47.03;;
321;SDS011;148;51.480;7.208;2022-12-16T19:29:43;160.50;;;53.40;;
321;SDS011;148;51.480;7.208;2022-12-16T19:32:27;153.43;;;51.20;;
321;SDS011;148;51.480;7.208;2022-12-16T19:35:11;172.97;;;52.50;;
321;SDS011;148;51.480;7.208;2022-12-16T19:37:55;179.10;;;49.70;;
321;SDS011;148;51.480;7.208;2022-12-16T19:40:56;164.33;;;51.43;;
321;SDS011;148;51.480;7.208;2022-12-16T19:43:40;159.47;;;53.37;;
321;SDS011;148;51.480;7.208;2022-12-16T19:46:24;181.70;;;54.20;;
321;SDS011;148;51.480;7.208;2022-12-16T19:49:08;146.33;;;48.33;;
321;SDS011;148;51.480;7.208;2022-12-16T19:51:52;166.83;;;51.30;;
321;SDS011;148;51.480;7.208;2022-12-16T19:54:37;170.77;;;52.80;;
321;SDS011;148;51.480;7.208;2022-12-16T19:57:21;152.20;;;50.30;;
321;SDS011;148;51.480;7.208;2022-12-16T20:00:05;161.67;;;50.77;;
321;SDS011;148;51.480;7.208;2022-12-16T20:02:49;154.97;;;49.83;;
321;SDS011;148;51.480;7.208;2022-12-16T20:05:33;158.80;;;52.70;;
321;SDS011;148;51.480;7.208;2022-12-16T20:08:17;156.90;;;50.87;;
321;SDS011;148;51.480;7.208;2022-12-16T20:11:07;172.43;;;50.50;;
321;SDS011;148;51.480;7.208;2022-12-16T20:13:52;147.03;;;50.07;;
321;SDS011;148;51.480;7.208;2022-12-16T20:16:37;130.33;;;47.00;;
321;SDS011;148;51.480;7.208;2022-12-16T20:19:22;187.30;;;51.03;;
321;SDS011;148;51.480;7.208;2022-12-16T20:22:06;161.03;;;52.10;;
321;SDS011;148;51.480;7.208;2022-12-16T20:24:50;146.97;;;45.23;;
321;SDS011;148;51.480;7.208;2022-12-16T20:27:34;151.13;;;48.20;;
321;SDS011;148;51.480;7.208;2022-12-16T20:30:18;148.73;;;49.50;;
321;SDS011;148;51.480;7.208;2022-12-16T20:33:02;156.17;;;51.60;;
321;SDS011;148;51.480;7.208;2022-12-16T20:36:05;144.27;;;52.00;;
321;SDS011;148;51.480;7.208;2022-12-16T20:38:49;136.90;;;46.30;;
321;SDS011;148;51.480;7.208;2022-12-16T20:41:33;134.10;;;48.87;;
321;SDS011;148;51.480;7.208;2022-12-16T20:44:18;155.57;;;50.80;;
321;SDS011;148;51.480;7.208;2022-12-16T20:47:02;155.30;;;50.70;;
321;SDS011;148;51.480;7.208;2022-12-16T20:49:46;146.27;;;50.20;;
321;SDS011;148;51.480;7.208;2022-12-16T20:52:30;151.00;;;48.50;;
321;SDS011;148;51.480;7.208;2022-12-16T20:55:14;147.80;;;47.33;;
321;SDS011;148;51.480;7.208;2022-12-16T20:57:58;134.37;;;49.07;;
321;SDS011;148;51.480;7.208;2022-12-16T21:00:42;142.90;;;46.20;;
321;SDS011;148;51.480;7.208;2022-12-16T21:03:26;168.87;;;50.27;;
321;SDS011;148;51.480;7.208;2022-12-16T21:06:11;143.90;;;50.67;;
321;SDS011;148;51.480;7.208;2022-12-16T21:08:55;163.27;;;50.47;;
321;SDS011;148;51.480;7.208;2022-12-16T21:11:39;142.07;;;48.00;;
321;SDS011;148;51.480;7.208;2022-12-16T21:14:23;127.63;;;44.37;;
321;SDS011;148;51.480;7.208;2022-12-16T21:17:07;139.27;;;47.33;;
321;SDS011;148;51.480;7.208;2022-12-16T21:19:51;159.10;;;50.33;;
321;SDS011;148;51.480;7.208;2022-12-16T21:22:35;146.83;;;48.13;;
321;SDS011;148;51.480;7.208;2022-12-16T21:25:30;148.97;;;47.73;;
321;SDS011;148;51.480;7.208;2022-12-16T21:28:14;164.97;;;48.43;;
321;SDS011;148;51.480;7.208;2022-12-16T21:30:58;163.67;;;48.40;;
321;SDS011;148;51.480;7.208;2022-12-16T21:33:42;156.23;;;47.73;;
321;SDS011;148;51.480;7.208;2022-12-16T21:36:26;134.37;;;45.83;;
321;SDS011;148;51.480;7.208;2022-12-16T21:39:11;152.13;;;46.40;;
321;SDS011;148;51.480;7.208;2022-12-16T21:41:55;158.10;;;47.47;;
321;SDS011;148;51.480;7.208;2022-12-16T21:44:44;159.83;;;48.43;;
321;SDS011;148;51.480;7.208;2022-12-16T21:47:28;167.47;;;54.07;;
321;SDS011;148;51.480;7.208;2022-12-16T21:50:12;161.57;;;48.43;;
321;SDS011;148;51.480;7.208;2022-12-16T21:52:56;151.07;;;45.10;;
321;SDS011;148;51.480;7.208;2022-12-16T21:55:40;155.83;;;46.67;;
321;SDS011;148;51.480;7.208;2022-12-16T21:58:24;152.97;;;43.90;;
321;SDS011;148;51.480;7.208;2022-12-16T22:01:08;138.47;;;42.83;;
321;SDS011;148;51.480;7.208;2022-12-16T22:03:53;150.93;;;45.40;;
321;SDS011;148;51.480;7.208;2022-12-16T22:06:37;141.17;;;42.87;;
321;SDS011;148;51.480;7.208;2022-12-16T22:09:21;123.50;;;41.10;;
321;SDS011;148;51.480;7.208;2022-12-16T22:12:05;125.77;;;43.40;;
321;SDS011;148;51.480;7.208;2022-12-16T22:14:49;124.13;;;41.60;;
321;SDS011;148;51.480;7.208;2022-12-16T22:17:34;130.43;;;40.60;;
321;SDS011;148;51.480;7.208;2022-12-16T22:20:18;140.00;;;43.87;;
321;SDS011;148;51.480;7.208;2022-12-16T22:23:10;175.07;;;58.50;;
321;SDS011;148;51.480;7.208;2022-12-16T22:25:55;145.43;;;46.63;;
321;SDS011;148;51.480;7.208;2022-12-16T22:28:40;141.30;;;41.93;;
321;SDS011;148;51.480;7.208;2022-12-16T22:31:24;128.67;;;41.60;;
321;SDS011;148;51.480;7.208;2022-12-16T22:34:08;119.50;;;41.27;;
321;SDS011;148;51.480;7.208;2022-12-16T22:36:52;111.20;;;38.00;;
321;SDS011;148;51.480;7.208;2022-12-16T22:39:36;110.37;;;35.90;;
321;SDS011;148;51.480;7.208;2022-12-16T22:42:27;125.33;;;38.60;;
321;SDS011;148;51.480;7.208;2022-12-16T22:45:12;131.77;;;42.77;;
321;SDS011;148;51.480;7.208;2022-12-16T22:47:56;137.90;;;45.33;;
321;SDS011;148;51.480;7.208;2022-12-16T22:50:40;144.60;;;43.33;;
321;SDS011;148;51.480;7.208;2022-12-16T22:53:24;131.47;;;44.20;;
321;SDS011;148;51.480;7.208;2022-12-16T22:56:08;162.37;;;48.10;;
321;SDS011;148;51.480;7.208;2022-12-16T22:58:52;150.80;;;43.80;;
321;SDS011;148;51.480;7.208;2022-12-16T23:01:36;152.70;;;44.90;;
321;SDS011;148;51.480;7.208;2022-12-16T23:04:20;133.10;;;43.87;;
321;SDS011;148;51.480;7.208;2022-12-16T23:07:04;137.57;;;45.30;;
321;SDS011;148;51.480;7.208;2022-12-16T23:09:48;147.23;;;41.57;;
321;SDS011;148;51.480;7.208;2022-12-16T23:12:32;146.30;;;44.80;;
321;SDS011;148;51.480;7.208;2022-12-16T23:15:16;141.90;;;49.47;;
321;SDS011;148;51.480;7.208;2022-12-16T23:18:01;153.10;;;46.20;;
321;SDS011;148;51.480;7.208;2022-12-16T23:20:45;146.70;;;46.60;;
321;SDS011;148;51.480;7.208;2022-12-16T23:23:30;146.73;;;47.37;;
321;SDS011;148;51.480;7.208;2022-12-16T23:26:14;151.73;;;44.57;;
321;SDS011;148;51.480;7.208;2022-12-16T23:28:58;128.27;;;44.50;;
321;SDS011;148;51.480;7.208;2022-12-16T23:31:42;147.10;;;44.73;;
321;SDS011;148;51.480;7.208;2022-12-16T23:34:27;138.83;;;44.17;;
321;SDS011;148;51.480;7.208;2022-12-16T23:37:11;135.33;;;42.83;;
321;SDS011;148;51.480;7.208;2022-12-16T23:39:55;147.20;;;40.47;;
321;SDS011;148;51.480;7.208;2022-12-16T23:42:39;127.57;;;39.57;;
321;SDS011;148;51.480;7.208;2022-12-16T23:45:23;125.43;;;41.60;;
321;SDS011;148;51.480;7.208;2022-12-16T23:48:08;130.27;;;41.67;;
321;SDS011;148;51.480;7.208;2022-12-16T23:50:52;112.73;;;39.63;;
321;SDS011;148;51.480;7.208;2022-12-16T23:53:37;132.70;;;41.40;;
321;SDS011;148;51.480;7.208;2022-12-16T23:56:21;133.67;;;41.33;;
321;SDS011;148;51.480;7.208;2022-12-16T23:59:05;119.43;;;39.60;;
